sensor_id;sensor_type;location;lat;lon;timestamp;temperature;humidity
108;DHT22;49;48.530;9.200;2022-09-01T00:01:20;20.50;1.00
108;DHT22;49;48.530;9.200;2022-09-01T00:03:49;20.70;1.00
108;DHT22;49;48.530;9.200;2022-09-01T00:06:18;20.80;1.00
108;DHT22;49;48.530;9.200;2022-09-01T00:08:47;20.70;1.00
108;DHT22;49;48.530;9.200;2022-09-01T00:11:14;20.90;1.00
108;DHT22;49;48.530;9.200;2022-09-01T00:13:41;20.80;1.00
108;DHT22;49;48.530;9.200;2022-09-01T00:16:10;20.90;1.00
108;DHT22;49;48.530;9.200;2022-09-01T00:18:39;21.10;1.00
108;DHT22;49;48.530;9.200;2022-09-01T00:21:07;21.30;1.00
108;DHT22;49;48.530;9.200;2022-09-01T00:23:34;21.10;1.00
108;DHT22;49;48.530;9.200;2022-09-01T00:26:01;21.40;1.00
108;DHT22;49;48.530;9.200;2022-09-01T00:28:28;21.50;1.00
108;DHT22;49;48.530;9.200;2022-09-01T00:30:55;21.70;1.00
108;DHT22;49;48.530;9.200;2022-09-01T00:33:24;21.60;1.00
108;DHT22;49;48.530;9.200;2022-09-01T00:35:51;21.00;1.00
108;DHT22;49;48.530;9.200;2022-09-01T00:38:18;20.90;1.00
108;DHT22;49;48.530;9.200;2022-09-01T00:40:45;20.90;1.00
108;DHT22;49;48.530;9.200;2022-09-01T00:43:14;21.10;1.00
108;DHT22;49;48.530;9.200;2022-09-01T00:45:42;21.10;1.00
108;DHT22;49;48.530;9.200;2022-09-01T00:48:09;21.10;1.00
108;DHT22;49;48.530;9.200;2022-09-01T00:50:37;21.30;1.00
108;DHT22;49;48.530;9.200;2022-09-01T00:53:06;21.50;1.00
108;DHT22;49;48.530;9.200;2022-09-01T00:55:36;21.70;1.00
108;DHT22;49;48.530;9.200;2022-09-01T00:58:06;21.60;1.00
108;DHT22;49;48.530;9.200;2022-09-01T01:00:36;21.40;1.00
108;DHT22;49;48.530;9.200;2022-09-01T01:03:06;21.30;1.00
108;DHT22;49;48.530;9.200;2022-09-01T01:05:38;21.40;1.00
108;DHT22;49;48.530;9.200;2022-09-01T01:08:07;21.50;1.00
108;DHT22;49;48.530;9.200;2022-09-01T01:10:40;21.40;1.00
108;DHT22;49;48.530;9.200;2022-09-01T01:13:09;21.20;1.00
108;DHT22;49;48.530;9.200;2022-09-01T01:15:37;21.10;1.00
108;DHT22;49;48.530;9.200;2022-09-01T01:18:08;21.20;1.00
108;DHT22;49;48.530;9.200;2022-09-01T01:20:35;21.10;1.00
108;DHT22;49;48.530;9.200;2022-09-01T01:23:26;21.20;1.00
108;DHT22;49;48.530;9.200;2022-09-01T01:25:58;21.30;1.00
108;DHT22;49;48.530;9.200;2022-09-01T01:28:27;21.30;1.00
108;DHT22;49;48.530;9.200;2022-09-01T01:30:58;21.10;1.00
108;DHT22;49;48.530;9.200;2022-09-01T01:33:29;20.70;1.00
108;DHT22;49;48.530;9.200;2022-09-01T01:35:57;20.80;1.00
108;DHT22;49;48.530;9.200;2022-09-01T01:38:25;20.90;1.00
108;DHT22;49;48.530;9.200;2022-09-01T01:40:53;20.80;1.00
108;DHT22;49;48.530;9.200;2022-09-01T01:43:23;20.90;1.00
108;DHT22;49;48.530;9.200;2022-09-01T01:45:53;20.80;1.00
108;DHT22;49;48.530;9.200;2022-09-01T01:48:22;20.70;1.00
108;DHT22;49;48.530;9.200;2022-09-01T01:50:50;20.80;1.00
108;DHT22;49;48.530;9.200;2022-09-01T01:53:17;20.70;1.00
108;DHT22;49;48.530;9.200;2022-09-01T01:55:45;20.50;1.00
108;DHT22;49;48.530;9.200;2022-09-01T01:58:14;20.50;1.00
108;DHT22;49;48.530;9.200;2022-09-01T02:00:43;20.80;1.00
108;DHT22;49;48.530;9.200;2022-09-01T02:03:11;20.80;1.00
108;DHT22;49;48.530;9.200;2022-09-01T02:05:42;20.70;1.00
108;DHT22;49;48.530;9.200;2022-09-01T02:08:10;20.60;1.00
108;DHT22;49;48.530;9.200;2022-09-01T02:10:41;20.60;1.00
108;DHT22;49;48.530;9.200;2022-09-01T02:13:10;20.70;1.00
108;DHT22;49;48.530;9.200;2022-09-01T02:15:43;20.40;1.00
108;DHT22;49;48.530;9.200;2022-09-01T02:18:12;20.00;1.00
108;DHT22;49;48.530;9.200;2022-09-01T02:20:41;19.80;1.00
108;DHT22;49;48.530;9.200;2022-09-01T02:23:08;20.20;1.00
108;DHT22;49;48.530;9.200;2022-09-01T02:25:38;20.50;1.00
108;DHT22;49;48.530;9.200;2022-09-01T02:28:10;20.60;1.00
108;DHT22;49;48.530;9.200;2022-09-01T02:30:40;20.70;1.00
108;DHT22;49;48.530;9.200;2022-09-01T02:33:10;20.70;1.00
108;DHT22;49;48.530;9.200;2022-09-01T02:35:38;20.40;1.00
108;DHT22;49;48.530;9.200;2022-09-01T02:38:06;19.90;1.00
108;DHT22;49;48.530;9.200;2022-09-01T02:40:33;19.40;1.00
108;DHT22;49;48.530;9.200;2022-09-01T02:43:00;19.80;1.00
108;DHT22;49;48.530;9.200;2022-09-01T02:45:27;20.00;1.00
108;DHT22;49;48.530;9.200;2022-09-01T02:47:54;20.10;1.00
108;DHT22;49;48.530;9.200;2022-09-01T02:50:24;20.20;1.00
108;DHT22;49;48.530;9.200;2022-09-01T02:52:52;20.00;1.00
108;DHT22;49;48.530;9.200;2022-09-01T02:55:20;20.30;1.00
108;DHT22;49;48.530;9.200;2022-09-01T02:57:49;20.50;1.00
108;DHT22;49;48.530;9.200;2022-09-01T03:00:20;20.30;1.00
108;DHT22;49;48.530;9.200;2022-09-01T03:02:54;20.50;1.00
108;DHT22;49;48.530;9.200;2022-09-01T03:05:25;20.50;1.00
108;DHT22;49;48.530;9.200;2022-09-01T03:07:55;20.60;1.00
108;DHT22;49;48.530;9.200;2022-09-01T03:10:28;20.40;1.00
108;DHT22;49;48.530;9.200;2022-09-01T03:12:58;20.00;1.00
108;DHT22;49;48.530;9.200;2022-09-01T03:15:26;19.90;1.00
108;DHT22;49;48.530;9.200;2022-09-01T03:17:53;19.80;1.00
108;DHT22;49;48.530;9.200;2022-09-01T03:20:20;19.70;1.00
108;DHT22;49;48.530;9.200;2022-09-01T03:22:49;19.70;1.00
108;DHT22;49;48.530;9.200;2022-09-01T03:25:17;19.40;1.00
108;DHT22;49;48.530;9.200;2022-09-01T03:27:45;19.20;1.00
108;DHT22;49;48.530;9.200;2022-09-01T03:30:13;19.50;1.00
108;DHT22;49;48.530;9.200;2022-09-01T03:32:40;19.70;1.00
108;DHT22;49;48.530;9.200;2022-09-01T03:35:07;19.90;1.00
108;DHT22;49;48.530;9.200;2022-09-01T03:37:35;19.80;1.00
108;DHT22;49;48.530;9.200;2022-09-01T03:40:06;20.00;1.00
108;DHT22;49;48.530;9.200;2022-09-01T03:42:34;20.30;1.00
108;DHT22;49;48.530;9.200;2022-09-01T03:45:02;20.50;1.00
108;DHT22;49;48.530;9.200;2022-09-01T03:47:33;20.60;1.00
108;DHT22;49;48.530;9.200;2022-09-01T03:50:04;20.50;1.00
108;DHT22;49;48.530;9.200;2022-09-01T03:52:32;20.50;1.00
108;DHT22;49;48.530;9.200;2022-09-01T03:54:58;20.30;1.00
108;DHT22;49;48.530;9.200;2022-09-01T03:57:27;20.20;1.00
108;DHT22;49;48.530;9.200;2022-09-01T03:59:54;20.10;1.00
108;DHT22;49;48.530;9.200;2022-09-01T04:02:21;20.30;1.00
108;DHT22;49;48.530;9.200;2022-09-01T04:04:48;20.50;1.00
108;DHT22;49;48.530;9.200;2022-09-01T04:07:15;20.70;1.00
108;DHT22;49;48.530;9.200;2022-09-01T04:09:42;20.70;1.00
108;DHT22;49;48.530;9.200;2022-09-01T04:12:09;20.80;1.00
108;DHT22;49;48.530;9.200;2022-09-01T04:14:39;20.90;1.00
108;DHT22;49;48.530;9.200;2022-09-01T04:17:06;20.70;1.00
108;DHT22;49;48.530;9.200;2022-09-01T04:19:50;20.50;1.00
108;DHT22;49;48.530;9.200;2022-09-01T04:22:17;20.40;1.00
108;DHT22;49;48.530;9.200;2022-09-01T04:24:45;20.30;1.00
108;DHT22;49;48.530;9.200;2022-09-01T04:27:13;20.30;1.00
108;DHT22;49;48.530;9.200;2022-09-01T04:29:43;20.30;1.00
108;DHT22;49;48.530;9.200;2022-09-01T04:32:11;19.80;1.00
108;DHT22;49;48.530;9.200;2022-09-01T04:34:40;19.60;1.00
108;DHT22;49;48.530;9.200;2022-09-01T04:37:09;19.70;1.00
108;DHT22;49;48.530;9.200;2022-09-01T04:39:37;19.70;1.00
108;DHT22;49;48.530;9.200;2022-09-01T04:42:05;19.50;1.00
108;DHT22;49;48.530;9.200;2022-09-01T04:44:34;19.30;1.00
108;DHT22;49;48.530;9.200;2022-09-01T04:47:03;19.40;1.00
108;DHT22;49;48.530;9.200;2022-09-01T04:49:35;19.70;1.00
108;DHT22;49;48.530;9.200;2022-09-01T04:52:03;20.10;1.00
108;DHT22;49;48.530;9.200;2022-09-01T04:54:30;20.20;1.00
108;DHT22;49;48.530;9.200;2022-09-01T04:57:01;20.50;1.00
108;DHT22;49;48.530;9.200;2022-09-01T04:59:30;20.50;1.00
108;DHT22;49;48.530;9.200;2022-09-01T05:01:57;20.30;1.00
108;DHT22;49;48.530;9.200;2022-09-01T05:04:30;20.50;1.00
108;DHT22;49;48.530;9.200;2022-09-01T05:06:59;20.50;1.00
108;DHT22;49;48.530;9.200;2022-09-01T05:09:27;20.50;1.00
108;DHT22;49;48.530;9.200;2022-09-01T05:11:56;20.40;1.00
108;DHT22;49;48.530;9.200;2022-09-01T05:14:35;20.60;1.00
108;DHT22;49;48.530;9.200;2022-09-01T05:17:03;20.60;1.00
108;DHT22;49;48.530;9.200;2022-09-01T05:19:36;20.30;1.00
108;DHT22;49;48.530;9.200;2022-09-01T05:22:03;20.40;1.00
108;DHT22;49;48.530;9.200;2022-09-01T05:24:34;20.50;1.00
108;DHT22;49;48.530;9.200;2022-09-01T05:27:02;20.80;1.00
108;DHT22;49;48.530;9.200;2022-09-01T05:29:29;20.90;1.00
108;DHT22;49;48.530;9.200;2022-09-01T05:31:57;20.80;1.00
108;DHT22;49;48.530;9.200;2022-09-01T05:34:25;21.00;1.00
108;DHT22;49;48.530;9.200;2022-09-01T05:36:59;21.10;1.00
108;DHT22;49;48.530;9.200;2022-09-01T05:39:26;21.20;1.00
108;DHT22;49;48.530;9.200;2022-09-01T05:41:54;21.30;1.00
108;DHT22;49;48.530;9.200;2022-09-01T05:44:22;21.40;1.00
108;DHT22;49;48.530;9.200;2022-09-01T05:46:49;21.50;1.00
108;DHT22;49;48.530;9.200;2022-09-01T05:49:18;21.30;1.00
108;DHT22;49;48.530;9.200;2022-09-01T05:51:47;20.90;1.00
108;DHT22;49;48.530;9.200;2022-09-01T05:54:19;21.10;1.00
108;DHT22;49;48.530;9.200;2022-09-01T05:56:48;21.40;1.00
108;DHT22;49;48.530;9.200;2022-09-01T05:59:15;21.50;1.00
108;DHT22;49;48.530;9.200;2022-09-01T06:01:42;21.70;1.00
108;DHT22;49;48.530;9.200;2022-09-01T06:04:12;21.90;1.00
108;DHT22;49;48.530;9.200;2022-09-01T06:06:42;22.00;1.00
108;DHT22;49;48.530;9.200;2022-09-01T06:09:11;22.10;1.00
108;DHT22;49;48.530;9.200;2022-09-01T06:11:41;21.70;1.00
108;DHT22;49;48.530;9.200;2022-09-01T06:14:08;21.50;1.00
108;DHT22;49;48.530;9.200;2022-09-01T06:16:36;21.60;1.00
108;DHT22;49;48.530;9.200;2022-09-01T06:19:04;21.90;1.00
108;DHT22;49;48.530;9.200;2022-09-01T06:21:32;22.00;1.00
108;DHT22;49;48.530;9.200;2022-09-01T06:23:59;21.90;1.00
108;DHT22;49;48.530;9.200;2022-09-01T06:26:27;21.20;1.00
108;DHT22;49;48.530;9.200;2022-09-01T06:28:58;21.20;1.00
108;DHT22;49;48.530;9.200;2022-09-01T06:31:27;21.30;1.00
108;DHT22;49;48.530;9.200;2022-09-01T06:33:59;21.90;1.00
108;DHT22;49;48.530;9.200;2022-09-01T06:36:27;21.80;1.00
108;DHT22;49;48.530;9.200;2022-09-01T06:38:57;21.90;1.00
108;DHT22;49;48.530;9.200;2022-09-01T06:41:26;21.70;1.00
108;DHT22;49;48.530;9.200;2022-09-01T06:43:54;21.90;1.00
108;DHT22;49;48.530;9.200;2022-09-01T06:46:23;22.20;1.00
108;DHT22;49;48.530;9.200;2022-09-01T06:48:52;22.20;1.00
108;DHT22;49;48.530;9.200;2022-09-01T06:51:23;22.60;1.00
108;DHT22;49;48.530;9.200;2022-09-01T06:53:51;22.90;1.00
108;DHT22;49;48.530;9.200;2022-09-01T06:56:21;22.90;1.00
108;DHT22;49;48.530;9.200;2022-09-01T06:58:51;22.70;1.00
108;DHT22;49;48.530;9.200;2022-09-01T07:01:22;22.40;1.00
108;DHT22;49;48.530;9.200;2022-09-01T07:03:52;22.50;1.00
108;DHT22;49;48.530;9.200;2022-09-01T07:06:21;22.30;1.00
108;DHT22;49;48.530;9.200;2022-09-01T07:08:50;22.40;1.00
108;DHT22;49;48.530;9.200;2022-09-01T07:11:22;22.10;1.00
108;DHT22;49;48.530;9.200;2022-09-01T07:13:54;22.20;1.00
108;DHT22;49;48.530;9.200;2022-09-01T07:16:25;22.20;1.00
108;DHT22;49;48.530;9.200;2022-09-01T07:18:55;22.20;1.00
108;DHT22;49;48.530;9.200;2022-09-01T07:21:24;22.10;1.00
108;DHT22;49;48.530;9.200;2022-09-01T07:23:51;22.50;1.00
108;DHT22;49;48.530;9.200;2022-09-01T07:26:19;22.60;1.00
108;DHT22;49;48.530;9.200;2022-09-01T07:28:49;22.70;1.00
108;DHT22;49;48.530;9.200;2022-09-01T07:31:18;23.00;1.00
108;DHT22;49;48.530;9.200;2022-09-01T07:33:49;24.00;1.00
108;DHT22;49;48.530;9.200;2022-09-01T07:36:18;25.40;1.00
108;DHT22;49;48.530;9.200;2022-09-01T07:38:45;25.80;1.00
108;DHT22;49;48.530;9.200;2022-09-01T07:41:16;26.10;1.00
108;DHT22;49;48.530;9.200;2022-09-01T07:43:43;26.20;1.00
108;DHT22;49;48.530;9.200;2022-09-01T07:46:11;25.50;1.00
108;DHT22;49;48.530;9.200;2022-09-01T07:48:38;26.40;1.00
108;DHT22;49;48.530;9.200;2022-09-01T07:51:07;26.40;1.00
108;DHT22;49;48.530;9.200;2022-09-01T07:53:35;26.40;1.00
108;DHT22;49;48.530;9.200;2022-09-01T07:56:05;26.00;1.00
108;DHT22;49;48.530;9.200;2022-09-01T07:58:35;25.50;1.00
108;DHT22;49;48.530;9.200;2022-09-01T08:01:06;25.50;1.00
108;DHT22;49;48.530;9.200;2022-09-01T08:03:35;25.20;1.00
108;DHT22;49;48.530;9.200;2022-09-01T08:06:03;25.60;1.00
108;DHT22;49;48.530;9.200;2022-09-01T08:08:32;26.20;1.00
108;DHT22;49;48.530;9.200;2022-09-01T08:11:00;26.10;1.00
108;DHT22;49;48.530;9.200;2022-09-01T08:13:27;26.40;1.00
108;DHT22;49;48.530;9.200;2022-09-01T08:15:55;26.70;1.00
108;DHT22;49;48.530;9.200;2022-09-01T08:18:22;26.30;1.00
108;DHT22;49;48.530;9.200;2022-09-01T08:20:49;25.60;1.00
108;DHT22;49;48.530;9.200;2022-09-01T08:23:18;25.40;1.00
108;DHT22;49;48.530;9.200;2022-09-01T08:25:47;24.40;1.00
108;DHT22;49;48.530;9.200;2022-09-01T08:28:15;24.50;1.00
108;DHT22;49;48.530;9.200;2022-09-01T08:30:44;24.00;1.00
108;DHT22;49;48.530;9.200;2022-09-01T08:33:13;23.70;1.00
108;DHT22;49;48.530;9.200;2022-09-01T08:35:44;23.80;1.00
108;DHT22;49;48.530;9.200;2022-09-01T08:38:11;24.30;1.00
108;DHT22;49;48.530;9.200;2022-09-01T08:40:40;24.10;1.00
108;DHT22;49;48.530;9.200;2022-09-01T08:43:18;23.90;1.00
108;DHT22;49;48.530;9.200;2022-09-01T08:45:52;23.80;1.00
108;DHT22;49;48.530;9.200;2022-09-01T08:48:23;24.00;1.00
108;DHT22;49;48.530;9.200;2022-09-01T08:51:02;23.90;1.00
108;DHT22;49;48.530;9.200;2022-09-01T08:53:37;23.70;1.00
108;DHT22;49;48.530;9.200;2022-09-01T08:56:09;24.00;1.00
108;DHT22;49;48.530;9.200;2022-09-01T08:58:38;23.50;1.00
108;DHT22;49;48.530;9.200;2022-09-01T09:01:10;23.30;1.00
108;DHT22;49;48.530;9.200;2022-09-01T09:03:48;23.50;1.00
108;DHT22;49;48.530;9.200;2022-09-01T09:06:22;24.10;1.00
108;DHT22;49;48.530;9.200;2022-09-01T09:08:56;24.10;1.00
108;DHT22;49;48.530;9.200;2022-09-01T09:11:45;23.40;1.00
108;DHT22;49;48.530;9.200;2022-09-01T09:14:32;23.50;1.00
108;DHT22;49;48.530;9.200;2022-09-01T09:17:03;23.50;1.00
108;DHT22;49;48.530;9.200;2022-09-01T09:19:33;23.70;1.00
108;DHT22;49;48.530;9.200;2022-09-01T09:22:04;23.60;1.00
108;DHT22;49;48.530;9.200;2022-09-01T09:24:36;22.90;1.00
108;DHT22;49;48.530;9.200;2022-09-01T09:27:17;23.10;1.00
108;DHT22;49;48.530;9.200;2022-09-01T09:29:48;23.30;1.00
108;DHT22;49;48.530;9.200;2022-09-01T09:32:17;23.20;1.00
108;DHT22;49;48.530;9.200;2022-09-01T09:34:45;23.50;1.00
108;DHT22;49;48.530;9.200;2022-09-01T09:37:22;23.80;1.00
108;DHT22;49;48.530;9.200;2022-09-01T09:40:11;24.40;1.00
108;DHT22;49;48.530;9.200;2022-09-01T09:42:57;25.20;1.00
108;DHT22;49;48.530;9.200;2022-09-01T09:45:30;25.30;1.00
108;DHT22;49;48.530;9.200;2022-09-01T09:47:59;25.50;1.00
108;DHT22;49;48.530;9.200;2022-09-01T09:50:28;25.80;1.00
108;DHT22;49;48.530;9.200;2022-09-01T09:53:11;25.70;1.00
108;DHT22;49;48.530;9.200;2022-09-01T09:55:56;25.00;1.00
108;DHT22;49;48.530;9.200;2022-09-01T09:58:26;25.10;1.00
108;DHT22;49;48.530;9.200;2022-09-01T10:01:02;25.10;1.00
108;DHT22;49;48.530;9.200;2022-09-01T10:03:39;25.30;1.00
108;DHT22;49;48.530;9.200;2022-09-01T10:06:10;25.80;1.00
108;DHT22;49;48.530;9.200;2022-09-01T10:08:41;25.50;1.00
108;DHT22;49;48.530;9.200;2022-09-01T10:11:26;25.10;1.00
108;DHT22;49;48.530;9.200;2022-09-01T10:13:54;25.30;1.00
108;DHT22;49;48.530;9.200;2022-09-01T10:16:26;25.40;1.00
108;DHT22;49;48.530;9.200;2022-09-01T10:18:57;25.50;1.00
108;DHT22;49;48.530;9.200;2022-09-01T10:21:32;25.10;1.00
108;DHT22;49;48.530;9.200;2022-09-01T10:24:08;25.10;1.00
108;DHT22;49;48.530;9.200;2022-09-01T10:26:38;25.30;1.00
108;DHT22;49;48.530;9.200;2022-09-01T10:29:12;25.80;1.00
108;DHT22;49;48.530;9.200;2022-09-01T10:31:42;25.90;1.00
108;DHT22;49;48.530;9.200;2022-09-01T10:34:14;25.90;1.00
108;DHT22;49;48.530;9.200;2022-09-01T10:36:43;26.30;1.00
108;DHT22;49;48.530;9.200;2022-09-01T10:39:12;26.20;1.00
108;DHT22;49;48.530;9.200;2022-09-01T10:41:47;26.30;1.00
108;DHT22;49;48.530;9.200;2022-09-01T10:44:20;26.20;1.00
108;DHT22;49;48.530;9.200;2022-09-01T10:46:50;26.10;1.00
108;DHT22;49;48.530;9.200;2022-09-01T10:52:52;25.60;1.00
108;DHT22;49;48.530;9.200;2022-09-01T10:55:22;25.50;1.00
108;DHT22;49;48.530;9.200;2022-09-01T10:57:58;25.20;1.00
108;DHT22;49;48.530;9.200;2022-09-01T11:00:56;24.80;1.00
108;DHT22;49;48.530;9.200;2022-09-01T11:06:57;25.40;1.00
108;DHT22;49;48.530;9.200;2022-09-01T11:09:33;25.30;1.00
108;DHT22;49;48.530;9.200;2022-09-01T11:12:23;25.40;1.00
108;DHT22;49;48.530;9.200;2022-09-01T11:14:56;25.50;1.00
108;DHT22;49;48.530;9.200;2022-09-01T11:17:26;25.80;1.00
108;DHT22;49;48.530;9.200;2022-09-01T11:19:59;25.70;1.00
108;DHT22;49;48.530;9.200;2022-09-01T11:22:31;25.80;1.00
108;DHT22;49;48.530;9.200;2022-09-01T11:30:52;25.90;1.00
108;DHT22;49;48.530;9.200;2022-09-01T11:33:43;25.80;1.00
108;DHT22;49;48.530;9.200;2022-09-01T11:36:23;25.70;1.00
108;DHT22;49;48.530;9.200;2022-09-01T11:38:58;25.30;1.00
108;DHT22;49;48.530;9.200;2022-09-01T11:41:33;25.70;1.00
108;DHT22;49;48.530;9.200;2022-09-01T11:44:02;25.90;1.00
108;DHT22;49;48.530;9.200;2022-09-01T11:46:37;26.30;1.00
108;DHT22;49;48.530;9.200;2022-09-01T11:49:27;26.20;1.00
108;DHT22;49;48.530;9.200;2022-09-01T11:51:58;26.20;1.00
108;DHT22;49;48.530;9.200;2022-09-01T11:54:28;26.50;1.00
108;DHT22;49;48.530;9.200;2022-09-01T11:56:55;26.40;1.00
108;DHT22;49;48.530;9.200;2022-09-01T11:59:31;26.20;1.00
108;DHT22;49;48.530;9.200;2022-09-01T12:01:58;25.80;1.00
108;DHT22;49;48.530;9.200;2022-09-01T12:04:31;25.60;1.00
108;DHT22;49;48.530;9.200;2022-09-01T12:07:03;25.80;1.00
108;DHT22;49;48.530;9.200;2022-09-01T12:09:33;25.90;1.00
108;DHT22;49;48.530;9.200;2022-09-01T12:12:03;26.10;1.00
108;DHT22;49;48.530;9.200;2022-09-01T12:14:30;25.80;1.00
108;DHT22;49;48.530;9.200;2022-09-01T12:16:59;25.70;1.00
108;DHT22;49;48.530;9.200;2022-09-01T12:19:30;25.70;1.00
108;DHT22;49;48.530;9.200;2022-09-01T12:22:03;26.00;1.00
108;DHT22;49;48.530;9.200;2022-09-01T12:24:34;26.00;1.00
108;DHT22;49;48.530;9.200;2022-09-01T12:27:01;26.40;1.00
108;DHT22;49;48.530;9.200;2022-09-01T12:29:29;26.80;1.00
108;DHT22;49;48.530;9.200;2022-09-01T12:31:59;27.10;1.00
108;DHT22;49;48.530;9.200;2022-09-01T12:34:36;27.20;1.00
108;DHT22;49;48.530;9.200;2022-09-01T12:37:08;27.60;1.00
108;DHT22;49;48.530;9.200;2022-09-01T12:39:36;27.60;1.00
108;DHT22;49;48.530;9.200;2022-09-01T12:42:07;27.20;1.00
108;DHT22;49;48.530;9.200;2022-09-01T12:44:44;27.20;1.00
108;DHT22;49;48.530;9.200;2022-09-01T12:47:17;27.60;1.00
108;DHT22;49;48.530;9.200;2022-09-01T12:50:01;27.30;1.00
108;DHT22;49;48.530;9.200;2022-09-01T12:52:31;26.30;1.00
108;DHT22;49;48.530;9.200;2022-09-01T12:55:13;25.80;1.00
108;DHT22;49;48.530;9.200;2022-09-01T12:57:47;24.90;1.00
108;DHT22;49;48.530;9.200;2022-09-01T13:00:18;24.50;1.00
108;DHT22;49;48.530;9.200;2022-09-01T13:02:48;24.10;1.00
108;DHT22;49;48.530;9.200;2022-09-01T13:05:22;24.20;1.00
108;DHT22;49;48.530;9.200;2022-09-01T13:07:54;24.20;1.00
108;DHT22;49;48.530;9.200;2022-09-01T13:10:22;24.40;1.00
108;DHT22;49;48.530;9.200;2022-09-01T13:12:50;24.50;1.00
108;DHT22;49;48.530;9.200;2022-09-01T13:15:17;24.80;1.00
108;DHT22;49;48.530;9.200;2022-09-01T13:17:45;24.90;1.00
108;DHT22;49;48.530;9.200;2022-09-01T13:20:12;24.40;1.00
108;DHT22;49;48.530;9.200;2022-09-01T13:22:39;24.80;1.00
108;DHT22;49;48.530;9.200;2022-09-01T13:25:09;25.10;1.00
108;DHT22;49;48.530;9.200;2022-09-01T13:27:36;25.20;1.00
108;DHT22;49;48.530;9.200;2022-09-01T13:30:04;24.90;1.00
108;DHT22;49;48.530;9.200;2022-09-01T13:32:31;24.90;1.00
108;DHT22;49;48.530;9.200;2022-09-01T13:34:58;25.30;1.00
108;DHT22;49;48.530;9.200;2022-09-01T13:37:25;25.50;1.00
108;DHT22;49;48.530;9.200;2022-09-01T13:39:53;26.00;1.00
108;DHT22;49;48.530;9.200;2022-09-01T13:42:21;26.20;1.00
108;DHT22;49;48.530;9.200;2022-09-01T13:44:48;26.60;1.00
108;DHT22;49;48.530;9.200;2022-09-01T13:47:15;26.60;1.00
108;DHT22;49;48.530;9.200;2022-09-01T13:49:42;26.40;1.00
108;DHT22;49;48.530;9.200;2022-09-01T13:52:10;26.50;1.00
108;DHT22;49;48.530;9.200;2022-09-01T13:54:37;26.50;1.00
108;DHT22;49;48.530;9.200;2022-09-01T13:57:04;26.50;1.00
108;DHT22;49;48.530;9.200;2022-09-01T13:59:32;26.40;1.00
108;DHT22;49;48.530;9.200;2022-09-01T14:01:59;26.30;1.00
108;DHT22;49;48.530;9.200;2022-09-01T14:04:26;26.20;1.00
108;DHT22;49;48.530;9.200;2022-09-01T14:06:54;26.20;1.00
108;DHT22;49;48.530;9.200;2022-09-01T14:09:21;26.00;1.00
108;DHT22;49;48.530;9.200;2022-09-01T14:11:52;25.90;1.00
108;DHT22;49;48.530;9.200;2022-09-01T14:14:20;26.60;1.00
108;DHT22;49;48.530;9.200;2022-09-01T14:16:49;27.00;1.00
108;DHT22;49;48.530;9.200;2022-09-01T14:19:16;27.30;1.00
108;DHT22;49;48.530;9.200;2022-09-01T14:21:43;27.10;1.00
108;DHT22;49;48.530;9.200;2022-09-01T14:24:11;27.00;1.00
108;DHT22;49;48.530;9.200;2022-09-01T14:26:39;26.50;1.00
108;DHT22;49;48.530;9.200;2022-09-01T14:29:06;26.10;1.00
108;DHT22;49;48.530;9.200;2022-09-01T14:31:33;25.60;1.00
108;DHT22;49;48.530;9.200;2022-09-01T14:34:04;26.00;1.00
108;DHT22;49;48.530;9.200;2022-09-01T14:36:31;26.30;1.00
108;DHT22;49;48.530;9.200;2022-09-01T14:38:58;26.00;1.00
108;DHT22;49;48.530;9.200;2022-09-01T14:41:27;25.60;1.00
108;DHT22;49;48.530;9.200;2022-09-01T14:43:56;25.60;1.00
108;DHT22;49;48.530;9.200;2022-09-01T14:46:27;25.80;1.00
108;DHT22;49;48.530;9.200;2022-09-01T14:48:55;26.00;1.00
108;DHT22;49;48.530;9.200;2022-09-01T14:51:25;25.70;1.00
108;DHT22;49;48.530;9.200;2022-09-01T14:53:53;25.80;1.00
108;DHT22;49;48.530;9.200;2022-09-01T14:56:21;25.70;1.00
108;DHT22;49;48.530;9.200;2022-09-01T14:58:50;25.90;1.00
108;DHT22;49;48.530;9.200;2022-09-01T15:01:19;26.00;1.00
108;DHT22;49;48.530;9.200;2022-09-01T15:03:47;25.90;1.00
108;DHT22;49;48.530;9.200;2022-09-01T15:06:19;25.90;1.00
108;DHT22;49;48.530;9.200;2022-09-01T15:08:47;26.50;1.00
108;DHT22;49;48.530;9.200;2022-09-01T15:11:17;26.80;1.00
108;DHT22;49;48.530;9.200;2022-09-01T15:13:45;27.10;1.00
108;DHT22;49;48.530;9.200;2022-09-01T15:16:17;27.00;1.00
108;DHT22;49;48.530;9.200;2022-09-01T15:18:44;27.10;1.00
108;DHT22;49;48.530;9.200;2022-09-01T15:21:18;26.60;1.00
108;DHT22;49;48.530;9.200;2022-09-01T15:23:45;26.20;1.00
108;DHT22;49;48.530;9.200;2022-09-01T15:26:14;26.20;1.00
108;DHT22;49;48.530;9.200;2022-09-01T15:28:42;26.00;1.00
108;DHT22;49;48.530;9.200;2022-09-01T15:31:09;25.80;1.00
108;DHT22;49;48.530;9.200;2022-09-01T15:33:38;25.70;1.00
108;DHT22;49;48.530;9.200;2022-09-01T15:36:06;25.50;1.00
108;DHT22;49;48.530;9.200;2022-09-01T15:38:35;25.30;1.00
108;DHT22;49;48.530;9.200;2022-09-01T15:41:02;25.60;1.00
108;DHT22;49;48.530;9.200;2022-09-01T15:43:34;25.80;1.00
108;DHT22;49;48.530;9.200;2022-09-01T15:46:04;25.60;1.00
108;DHT22;49;48.530;9.200;2022-09-01T15:48:31;25.40;1.00
108;DHT22;49;48.530;9.200;2022-09-01T15:51:24;25.30;1.00
108;DHT22;49;48.530;9.200;2022-09-01T15:53:55;25.30;1.00
108;DHT22;49;48.530;9.200;2022-09-01T15:56:23;25.40;1.00
108;DHT22;49;48.530;9.200;2022-09-01T15:58:51;25.50;1.00
108;DHT22;49;48.530;9.200;2022-09-01T16:01:21;25.40;1.00
108;DHT22;49;48.530;9.200;2022-09-01T16:03:48;25.30;1.00
108;DHT22;49;48.530;9.200;2022-09-01T16:06:15;25.20;1.00
108;DHT22;49;48.530;9.200;2022-09-01T16:08:42;25.10;1.00
108;DHT22;49;48.530;9.200;2022-09-01T16:11:09;25.10;1.00
108;DHT22;49;48.530;9.200;2022-09-01T16:13:40;25.30;1.00
108;DHT22;49;48.530;9.200;2022-09-01T16:16:28;25.40;1.00
108;DHT22;49;48.530;9.200;2022-09-01T16:19:04;25.50;1.00
108;DHT22;49;48.530;9.200;2022-09-01T16:21:45;25.60;1.00
108;DHT22;49;48.530;9.200;2022-09-01T16:24:15;25.70;1.00
108;DHT22;49;48.530;9.200;2022-09-01T16:26:46;25.60;1.00
108;DHT22;49;48.530;9.200;2022-09-01T16:29:20;25.50;1.00
108;DHT22;49;48.530;9.200;2022-09-01T16:31:53;25.00;1.00
108;DHT22;49;48.530;9.200;2022-09-01T16:34:22;25.10;1.00
108;DHT22;49;48.530;9.200;2022-09-01T16:36:59;25.00;1.00
108;DHT22;49;48.530;9.200;2022-09-01T16:39:33;25.10;1.00
108;DHT22;49;48.530;9.200;2022-09-01T16:42:23;25.30;1.00
108;DHT22;49;48.530;9.200;2022-09-01T16:45:04;25.30;1.00
108;DHT22;49;48.530;9.200;2022-09-01T16:47:50;25.30;1.00
108;DHT22;49;48.530;9.200;2022-09-01T16:50:31;25.30;1.00
108;DHT22;49;48.530;9.200;2022-09-01T16:53:21;25.20;1.00
108;DHT22;49;48.530;9.200;2022-09-01T16:55:58;25.30;1.00
108;DHT22;49;48.530;9.200;2022-09-01T16:58:39;25.40;1.00
108;DHT22;49;48.530;9.200;2022-09-01T17:01:19;25.30;1.00
108;DHT22;49;48.530;9.200;2022-09-01T17:03:56;25.20;1.00
108;DHT22;49;48.530;9.200;2022-09-01T17:06:30;24.90;1.00
108;DHT22;49;48.530;9.200;2022-09-01T17:09:06;24.30;1.00
108;DHT22;49;48.530;9.200;2022-09-01T17:11:40;24.20;1.00
108;DHT22;49;48.530;9.200;2022-09-01T17:14:12;24.30;1.00
108;DHT22;49;48.530;9.200;2022-09-01T17:16:53;24.50;1.00
108;DHT22;49;48.530;9.200;2022-09-01T17:19:25;24.30;1.00
108;DHT22;49;48.530;9.200;2022-09-01T17:22:02;24.50;1.00
108;DHT22;49;48.530;9.200;2022-09-01T17:24:35;24.70;1.00
108;DHT22;49;48.530;9.200;2022-09-01T17:27:05;24.90;1.00
108;DHT22;49;48.530;9.200;2022-09-01T17:29:41;25.10;1.00
108;DHT22;49;48.530;9.200;2022-09-01T17:32:18;25.00;1.00
108;DHT22;49;48.530;9.200;2022-09-01T17:34:54;25.00;1.00
108;DHT22;49;48.530;9.200;2022-09-01T17:37:29;25.00;1.00
108;DHT22;49;48.530;9.200;2022-09-01T17:40:11;25.00;1.00
108;DHT22;49;48.530;9.200;2022-09-01T17:42:44;25.00;1.00
108;DHT22;49;48.530;9.200;2022-09-01T17:45:24;24.90;1.00